Time;durP1;ratioP1;P1;durP2;ratioP2;P2;SDS_P1;SDS_P2;PMS_P1;PMS_P2;Temp;Humidity;BMP_temperature;BMP_pressure;BME280_temperature;BME280_humidity;BME280_pressure;Samples;Min_cycle;Max_cycle;Signal;HPM_P1;HPM_P2
2020/12/12 00:00:56;;;;;;;114.03;38.20;;;0.70;99.90;;;;;;5069230;28;20196;-61
2020/12/12 00:03:21;;;;;;;113.90;36.63;;;0.70;99.90;;;;;;5065910;28;20201;-61
2020/12/12 00:05:47;;;;;;;96.43;33.80;;;0.70;99.90;;;;;;5069869;28;20270;-61
2020/12/12 00:08:12;;;;;;;77.37;27.67;;;0.70;99.90;;;;;;5067338;28;20610;-61
2020/12/12 00:10:39;;;;;;;78.43;30.13;;;0.70;99.90;;;;;;5066045;28;20254;-61
2020/12/12 00:13:07;;;;;;;83.00;29.73;;;0.70;99.90;;;;;;5064443;28;20692;-60
2020/12/12 00:15:33;;;;;;;75.40;29.23;;;0.70;99.90;;;;;;5065084;28;20264;-60
2020/12/12 00:17:59;;;;;;;70.83;28.07;;;0.70;99.90;;;;;;5069966;28;20763;-61
2020/12/12 00:20:24;;;;;;;45.40;18.73;;;0.80;99.90;;;;;;5069721;28;20181;-60
2020/12/12 00:22:50;;;;;;;65.43;25.60;;;0.70;99.90;;;;;;5069217;28;20188;-61
2020/12/12 00:25:15;;;;;;;60.03;27.00;;;0.70;99.90;;;;;;5064143;28;20546;-61
2020/12/12 00:27:41;;;;;;;41.40;18.83;;;0.80;99.90;;;;;;5064961;28;20268;-61
2020/12/12 00:30:07;;;;;;;64.20;24.60;;;0.70;99.90;;;;;;5063585;28;20197;-62
2020/12/12 00:32:32;;;;;;;64.87;26.07;;;0.80;99.90;;;;;;5066365;28;20684;-61
2020/12/12 00:34:57;;;;;;;64.70;25.57;;;0.80;99.90;;;;;;5067494;28;20501;-61
2020/12/12 00:37:23;;;;;;;59.03;23.77;;;0.70;99.90;;;;;;5068982;28;20691;-61
2020/12/12 00:39:49;;;;;;;42.10;17.40;;;0.70;99.90;;;;;;5069148;28;20257;-61
2020/12/12 00:42:15;;;;;;;35.17;14.63;;;0.70;99.90;;;;;;5066506;28;20723;-60
2020/12/12 00:44:40;;;;;;;67.33;26.40;;;0.70;99.90;;;;;;5068138;28;20173;-61
2020/12/12 00:47:06;;;;;;;55.00;22.63;;;0.70;99.90;;;;;;5065502;28;20217;-61
2020/12/12 00:49:31;;;;;;;66.80;26.20;;;0.80;99.90;;;;;;5069277;28;20203;-61
2020/12/12 00:51:57;;;;;;;61.67;27.17;;;0.80;99.90;;;;;;5066774;28;20266;-61
2020/12/12 00:54:23;;;;;;;57.00;20.73;;;0.80;99.90;;;;;;5067412;28;20177;-61
2020/12/12 00:56:48;;;;;;;55.97;25.27;;;0.80;99.90;;;;;;5069184;28;20173;-61
2020/12/12 00:59:13;;;;;;;45.03;19.23;;;0.80;99.90;;;;;;5066967;28;20189;-61
2020/12/12 01:01:39;;;;;;;52.03;21.53;;;0.80;99.90;;;;;;5066430;28;20192;-61
2020/12/12 01:04:04;;;;;;;53.87;22.77;;;0.80;99.90;;;;;;5065343;28;20177;-61
2020/12/12 01:06:30;;;;;;;53.20;21.53;;;0.90;99.90;;;;;;5066478;28;20305;-61
2020/12/12 01:08:55;;;;;;;46.00;19.87;;;0.90;99.90;;;;;;5066455;28;20200;-61
2020/12/12 01:11:21;;;;;;;53.37;23.27;;;0.90;99.90;;;;;;5065152;28;20177;-61
2020/12/12 01:13:47;;;;;;;59.33;24.57;;;0.90;99.90;;;;;;5063433;28;20185;-61
2020/12/12 01:16:14;;;;;;;53.03;22.10;;;0.90;99.90;;;;;;5068580;28;20176;-61
2020/12/12 01:18:41;;;;;;;27.83;12.43;;;0.90;99.90;;;;;;5063914;28;20177;-61
2020/12/12 01:21:07;;;;;;;54.37;23.73;;;0.90;99.90;;;;;;5067204;28;20534;-61
2020/12/12 01:23:33;;;;;;;74.13;28.13;;;1.00;99.90;;;;;;5066485;28;20197;-61
2020/12/12 01:25:59;;;;;;;54.37;22.97;;;1.00;99.90;;;;;;5066916;28;20234;-61
2020/12/12 01:28:25;;;;;;;41.30;18.00;;;1.00;99.90;;;;;;5068626;28;20173;-61
2020/12/12 01:30:54;;;;;;;51.43;23.20;;;1.00;99.90;;;;;;5066377;28;20221;-60
2020/12/12 01:33:20;;;;;;;43.57;17.63;;;1.00;99.90;;;;;;5047440;28;20205;-61
2020/12/12 01:35:46;;;;;;;45.07;18.83;;;1.00;99.90;;;;;;5066214;28;20243;-61
2020/12/12 01:38:12;;;;;;;70.47;28.73;;;1.00;99.90;;;;;;5068411;28;20181;-63
2020/12/12 01:40:38;;;;;;;63.83;25.27;;;1.00;99.90;;;;;;5065047;28;20177;-61
2020/12/12 01:43:04;;;;;;;52.63;24.87;;;1.10;99.90;;;;;;5087314;22;20224;-64
2020/12/12 01:45:29;;;;;;;47.67;21.73;;;1.10;99.90;;;;;;5078189;28;20224;-65
2020/12/12 01:47:57;;;;;;;69.50;28.67;;;1.10;99.90;;;;;;5076661;28;20184;-63
2020/12/12 01:50:23;;;;;;;52.87;19.63;;;1.10;99.90;;;;;;5076221;28;20288;-63
2020/12/12 01:52:50;;;;;;;73.03;29.60;;;1.10;99.90;;;;;;5075947;28;20303;-64
2020/12/12 01:55:19;;;;;;;71.80;28.77;;;1.20;99.90;;;;;;5076909;28;20223;-65
2020/12/12 01:57:48;;;;;;;70.67;30.13;;;1.20;99.90;;;;;;5078162;28;20164;-63
2020/12/12 02:00:13;;;;;;;69.80;28.67;;;1.20;99.90;;;;;;5075738;28;20586;-64
2020/12/12 02:02:44;;;;;;;51.43;22.07;;;1.20;99.90;;;;;;5076390;28;20249;-64
2020/12/12 02:05:13;;;;;;;44.67;17.97;;;1.20;99.90;;;;;;5078074;28;20601;-65
2020/12/12 02:07:38;;;;;;;65.53;25.30;;;1.20;99.90;;;;;;5077982;28;20180;-65
2020/12/12 02:10:04;;;;;;;60.20;25.77;;;1.20;99.90;;;;;;5076326;28;20211;-66
2020/12/12 02:12:30;;;;;;;53.20;23.30;;;1.30;99.90;;;;;;5075933;28;20205;-65
2020/12/12 02:14:55;;;;;;;52.77;21.63;;;1.30;99.90;;;;;;5074680;28;20181;-65
2020/12/12 02:17:21;;;;;;;56.97;21.37;;;1.30;99.90;;;;;;5077301;28;20352;-65
2020/12/12 02:19:46;;;;;;;54.90;23.73;;;1.30;99.90;;;;;;5075539;28;20285;-62
2020/12/12 02:22:12;;;;;;;53.43;22.23;;;1.40;99.90;;;;;;5075265;28;20253;-64
2020/12/12 02:24:37;;;;;;;61.00;22.10;;;1.40;99.90;;;;;;5075601;28;20184;-65
2020/12/12 02:27:05;;;;;;;71.37;26.80;;;1.40;99.90;;;;;;5059468;28;20711;-64
2020/12/12 02:29:46;;;;;;;71.30;28.70;;;1.40;99.90;;;;;;5076853;28;20209;-64
2020/12/12 02:32:11;;;;;;;56.77;24.87;;;1.50;99.90;;;;;;5077937;28;20195;-64
2020/12/12 02:34:37;;;;;;;64.97;25.27;;;1.50;99.90;;;;;;5079850;28;20501;-64
2020/12/12 02:37:03;;;;;;;79.37;29.47;;;1.50;99.90;;;;;;5080696;28;20180;-64
2020/12/12 02:39:28;;;;;;;69.63;28.87;;;1.50;99.90;;;;;;5043826;28;20195;-64
2020/12/12 02:41:54;;;;;;;76.73;30.23;;;1.60;99.90;;;;;;5078914;28;20195;-63
2020/12/12 02:44:19;;;;;;;73.77;30.07;;;1.60;99.90;;;;;;5077488;28;20245;-64
2020/12/12 02:46:45;;;;;;;79.87;31.00;;;1.70;99.90;;;;;;5080256;28;20212;-64
2020/12/12 02:49:10;;;;;;;58.20;26.10;;;1.70;99.90;;;;;;5079649;28;20221;-64
2020/12/12 02:51:40;;;;;;;56.00;23.80;;;1.80;99.90;;;;;;5080053;28;20303;-64
2020/12/12 02:54:06;;;;;;;84.27;32.83;;;1.80;99.90;;;;;;5077395;28;20330;-63
2020/12/12 02:56:32;;;;;;;62.33;24.70;;;1.90;99.90;;;;;;5079610;28;20271;-63
2020/12/12 02:58:58;;;;;;;77.50;30.70;;;1.90;99.90;;;;;;5078824;28;20180;-64
2020/12/12 03:01:24;;;;;;;71.30;29.67;;;1.90;99.90;;;;;;5079117;28;20723;-64
2020/12/12 03:03:49;;;;;;;73.37;30.17;;;2.00;99.90;;;;;;5078407;28;20193;-64
2020/12/12 03:06:15;;;;;;;76.80;28.27;;;2.00;99.90;;;;;;5079483;28;20237;-64
2020/12/12 03:08:40;;;;;;;76.70;33.67;;;2.00;99.90;;;;;;5079590;28;20190;-64
2020/12/12 03:11:06;;;;;;;89.53;35.13;;;2.10;99.90;;;;;;5080074;28;20774;-65
2020/12/12 03:13:31;;;;;;;63.33;25.37;;;2.10;99.90;;;;;;5079855;28;20193;-65
2020/12/12 03:15:57;;;;;;;79.37;33.20;;;2.10;99.90;;;;;;5078154;28;20256;-65
2020/12/12 03:18:22;;;;;;;60.33;23.20;;;2.20;99.90;;;;;;5080232;28;20661;-65
2020/12/12 03:20:48;;;;;;;87.30;35.27;;;2.20;99.90;;;;;;5079295;28;20177;-65
2020/12/12 03:23:13;;;;;;;53.67;23.57;;;2.20;99.90;;;;;;5077905;28;20201;-65
2020/12/12 03:25:40;;;;;;;66.43;27.03;;;2.30;99.90;;;;;;5078575;28;20606;-64
2020/12/12 03:28:06;;;;;;;56.97;25.27;;;2.30;99.90;;;;;;5078076;28;20187;-65
2020/12/12 03:30:33;;;;;;;66.70;29.13;;;2.30;99.90;;;;;;5077777;28;20208;-65
2020/12/12 03:32:59;;;;;;;82.47;35.00;;;2.40;99.90;;;;;;5077148;28;20250;-65
2020/12/12 03:35:24;;;;;;;68.57;32.90;;;2.40;99.90;;;;;;5079324;28;20200;-65
2020/12/12 03:37:49;;;;;;;78.63;36.27;;;2.40;99.90;;;;;;5080470;28;20176;-63
2020/12/12 03:40:15;;;;;;;84.60;36.03;;;2.50;99.90;;;;;;5079486;28;20207;-65
2020/12/12 03:42:40;;;;;;;43.37;19.67;;;2.50;99.90;;;;;;5078737;28;20307;-65
2020/12/12 03:45:06;;;;;;;79.37;33.43;;;2.50;99.90;;;;;;5076566;28;20276;-65
2020/12/12 03:47:31;;;;;;;81.97;36.13;;;2.60;99.90;;;;;;5080813;28;20691;-65
2020/12/12 03:49:57;;;;;;;71.30;34.57;;;2.60;99.90;;;;;;5079065;28;20205;-65
2020/12/12 03:52:22;;;;;;;74.07;36.40;;;2.60;99.90;;;;;;5079895;28;20196;-65
2020/12/12 03:54:48;;;;;;;50.67;24.50;;;2.60;99.90;;;;;;5080225;28;20195;-64
2020/12/12 03:57:13;;;;;;;64.63;33.07;;;2.60;99.90;;;;;;5077187;28;20192;-64
2020/12/12 03:59:39;;;;;;;61.03;28.83;;;2.70;99.90;;;;;;5079299;28;20255;-65
2020/12/12 04:02:04;;;;;;;76.67;40.73;;;2.70;99.90;;;;;;5077022;28;20242;-64
2020/12/12 04:04:30;;;;;;;49.13;22.23;;;2.80;99.90;;;;;;5079267;28;20572;-64
2020/12/12 04:06:55;;;;;;;59.40;29.20;;;2.80;99.90;;;;;;5080249;28;20172;-65
2020/12/12 04:09:21;;;;;;;69.57;35.67;;;2.80;99.90;;;;;;5078794;28;20560;-65
2020/12/12 04:11:46;;;;;;;52.87;27.63;;;2.80;99.90;;;;;;5080742;28;20184;-64
2020/12/12 04:14:13;;;;;;;61.30;33.03;;;2.80;99.90;;;;;;5077525;28;20556;-64
2020/12/12 04:16:38;;;;;;;77.50;41.67;;;2.80;99.90;;;;;;5078502;28;21566;-65
2020/12/12 04:19:04;;;;;;;66.30;36.20;;;2.80;99.90;;;;;;5078422;28;20300;-64
2020/12/12 04:21:29;;;;;;;64.20;32.70;;;2.90;99.90;;;;;;5080131;28;20165;-65
2020/12/12 04:23:55;;;;;;;58.27;31.50;;;2.90;99.90;;;;;;5079691;28;20193;-65
2020/12/12 04:26:20;;;;;;;64.53;34.07;;;2.90;99.90;;;;;;5081300;28;20263;-65
2020/12/12 04:28:46;;;;;;;66.80;36.57;;;2.90;99.90;;;;;;5060676;28;20188;-65
2020/12/12 04:31:11;;;;;;;48.00;28.93;;;2.90;99.90;;;;;;5079200;28;20208;-64
2020/12/12 04:33:37;;;;;;;62.80;33.27;;;2.90;99.90;;;;;;5078935;28;20727;-64
2020/12/12 04:36:03;;;;;;;72.63;39.60;;;2.90;99.90;;;;;;5078441;28;20192;-65
2020/12/12 04:38:30;;;;;;;64.10;36.43;;;2.90;99.90;;;;;;5076911;28;20255;-65
2020/12/12 04:40:58;;;;;;;62.30;33.27;;;2.90;99.90;;;;;;5079161;28;20195;-64
2020/12/12 04:43:27;;;;;;;40.77;23.23;;;2.90;99.90;;;;;;5075901;28;20220;-64
2020/12/12 04:45:53;;;;;;;48.73;25.90;;;2.90;99.90;;;;;;5077560;28;20209;-65
2020/12/12 04:48:19;;;;;;;66.80;37.30;;;2.90;99.90;;;;;;5074483;28;20358;-65
2020/12/12 04:50:45;;;;;;;46.53;24.93;;;2.90;99.90;;;;;;5077559;28;20225;-64
2020/12/12 04:53:13;;;;;;;57.03;31.40;;;2.90;99.90;;;;;;5079064;28;20276;-65
2020/12/12 04:55:45;;;;;;;54.57;30.13;;;2.90;99.90;;;;;;5075537;28;20238;-62
2020/12/12 04:58:19;;;;;;;40.73;22.47;;;2.90;99.90;;;;;;5077554;28;20252;-64
2020/12/12 05:00:48;;;;;;;53.63;26.73;;;3.00;99.90;;;;;;5078848;28;20169;-65
2020/12/12 05:03:15;;;;;;;24.80;14.27;;;2.90;99.90;;;;;;5071646;28;20592;-65
2020/12/12 05:05:41;;;;;;;35.77;20.43;;;2.90;99.90;;;;;;5070646;28;20263;-65
2020/12/12 05:08:08;;;;;;;56.43;29.40;;;2.90;99.90;;;;;;5070509;28;20173;-63
2020/12/12 05:10:49;;;;;;;43.97;24.50;;;2.90;99.90;;;;;;5070620;28;20251;-64
2020/12/12 05:13:19;;;;;;;63.57;34.77;;;3.00;99.90;;;;;;5071217;28;20528;-64
2020/12/12 05:15:46;;;;;;;34.80;18.57;;;3.00;99.90;;;;;;5070810;28;20177;-63
2020/12/12 05:18:12;;;;;;;43.93;23.63;;;3.00;99.90;;;;;;5070654;28;20165;-64
2020/12/12 05:20:38;;;;;;;61.30;34.40;;;3.00;99.90;;;;;;5070139;28;20173;-65
2020/12/12 05:23:16;;;;;;;67.37;35.67;;;3.00;99.90;;;;;;5070743;28;20201;-64
2020/12/12 05:25:43;;;;;;;53.90;29.03;;;3.00;99.90;;;;;;5070771;28;20169;-64
2020/12/12 05:28:10;;;;;;;64.53;35.83;;;3.00;99.90;;;;;;5070491;28;20184;-64
2020/12/12 05:30:37;;;;;;;50.77;27.93;;;3.00;99.90;;;;;;5069897;28;20565;-62
2020/12/12 05:33:05;;;;;;;45.33;26.53;;;3.00;99.90;;;;;;5070102;28;20180;-64
2020/12/12 05:35:30;;;;;;;57.07;30.67;;;3.00;99.90;;;;;;5068203;28;20632;-62
2020/12/12 05:37:58;;;;;;;52.43;27.10;;;3.00;99.90;;;;;;5069951;28;20180;-63
2020/12/12 05:40:24;;;;;;;59.50;32.97;;;3.00;99.90;;;;;;5069748;28;20169;-62
2020/12/12 05:42:49;;;;;;;55.77;30.17;;;3.00;99.90;;;;;;5069835;28;20696;-63
2020/12/12 05:45:16;;;;;;;39.57;21.10;;;3.00;99.90;;;;;;5069865;28;20167;-62
2020/12/12 05:47:41;;;;;;;58.67;32.47;;;3.00;99.90;;;;;;5069780;28;20680;-63
2020/12/12 05:50:07;;;;;;;54.87;26.83;;;3.00;99.90;;;;;;5069776;28;20335;-63
2020/12/12 05:52:34;;;;;;;57.70;30.07;;;3.00;99.90;;;;;;5069294;28;20197;-63
2020/12/12 05:55:01;;;;;;;50.60;25.17;;;3.00;99.90;;;;;;5069713;28;20589;-63
2020/12/12 05:57:27;;;;;;;60.07;31.27;;;3.00;99.90;;;;;;5069206;28;20227;-63
2020/12/12 05:59:54;;;;;;;53.07;27.47;;;3.00;99.90;;;;;;5069875;28;20177;-62
2020/12/12 06:02:24;;;;;;;41.47;19.97;;;3.00;99.90;;;;;;5051120;28;20192;-62
2020/12/12 06:04:53;;;;;;;46.00;23.67;;;3.00;99.90;;;;;;5069650;28;20211;-63
2020/12/12 06:07:30;;;;;;;41.93;22.57;;;3.00;99.90;;;;;;5071998;28;20173;-62
2020/12/12 06:09:59;;;;;;;38.93;20.60;;;3.00;99.90;;;;;;5077972;28;20559;-63
2020/12/12 06:12:25;;;;;;;39.93;20.87;;;3.10;99.90;;;;;;5081378;28;20628;-62
2020/12/12 06:14:56;;;;;;;62.50;31.07;;;3.10;99.90;;;;;;5081790;28;20161;-63
2020/12/12 06:18:04;;;;;;;54.53;27.00;;;3.10;99.90;;;;;;5081824;28;20181;-62
2020/12/12 06:20:31;;;;;;;62.77;30.77;;;3.10;99.90;;;;;;5041613;28;20214;-63
2020/12/12 06:22:57;;;;;;;54.93;27.70;;;3.10;99.90;;;;;;5081274;28;20184;-62
2020/12/12 06:25:26;;;;;;;53.60;30.40;;;3.10;99.90;;;;;;5073394;28;20177;-63
2020/12/12 06:27:54;;;;;;;45.87;22.90;;;3.10;99.90;;;;;;5073467;28;20200;-62
2020/12/12 06:30:22;;;;;;;44.77;18.23;;;3.10;99.90;;;;;;5073011;28;20565;-62
2020/12/12 06:32:48;;;;;;;39.43;18.53;;;3.10;99.90;;;;;;5071798;28;20196;-62
2020/12/12 06:35:14;;;;;;;62.63;29.93;;;3.10;99.90;;;;;;5088710;28;20188;-63
2020/12/12 06:37:40;;;;;;;31.20;16.37;;;3.00;99.90;;;;;;5093843;28;20230;-62
2020/12/12 06:40:12;;;;;;;42.90;22.40;;;3.10;99.90;;;;;;5093325;28;20176;-63
2020/12/12 06:42:42;;;;;;;50.30;25.70;;;3.00;99.90;;;;;;5092992;28;20624;-66
2020/12/12 06:45:16;;;;;;;38.33;17.37;;;3.00;99.90;;;;;;5080867;28;20223;-67
2020/12/12 06:47:50;;;;;;;55.00;28.93;;;3.00;99.90;;;;;;5080287;28;20271;-66
2020/12/12 06:50:23;;;;;;;37.63;17.77;;;3.00;99.90;;;;;;5081627;28;20209;-66
2020/12/12 06:52:50;;;;;;;59.00;29.57;;;3.00;99.90;;;;;;5081456;28;20269;-65
2020/12/12 06:55:18;;;;;;;53.90;28.57;;;3.00;99.90;;;;;;5081720;28;20179;-66
2020/12/12 06:57:47;;;;;;;35.93;18.03;;;3.00;99.90;;;;;;5079611;28;20563;-65
2020/12/12 07:00:30;;;;;;;54.50;27.10;;;3.00;99.90;;;;;;5078433;28;20223;-66
2020/12/12 07:02:57;;;;;;;46.43;23.60;;;3.00;99.90;;;;;;5078037;28;20213;-66
2020/12/12 07:05:24;;;;;;;32.50;17.37;;;3.00;99.90;;;;;;5079961;28;20641;-65
2020/12/12 07:07:50;;;;;;;54.47;27.53;;;3.00;99.90;;;;;;5078365;28;20177;-65
2020/12/12 07:10:16;;;;;;;39.90;19.47;;;3.00;99.90;;;;;;5081033;28;20203;-65
2020/12/12 07:12:41;;;;;;;53.23;23.97;;;3.00;99.90;;;;;;5079063;28;20649;-65
2020/12/12 07:15:07;;;;;;;61.00;27.40;;;3.00;99.90;;;;;;5079628;28;20201;-65
2020/12/12 07:17:33;;;;;;;41.47;16.70;;;3.00;99.90;;;;;;5078677;28;20192;-65
2020/12/12 07:20:00;;;;;;;25.10;14.00;;;3.00;99.90;;;;;;5080749;28;20176;-65
2020/12/12 07:22:28;;;;;;;53.37;25.67;;;3.10;99.90;;;;;;5080217;28;20879;-65
2020/12/12 07:24:55;;;;;;;60.57;28.83;;;3.10;99.90;;;;;;5078701;28;20184;-65
2020/12/12 07:27:20;;;;;;;62.40;31.70;;;3.10;99.90;;;;;;5078257;28;20189;-66
2020/12/12 07:29:46;;;;;;;54.77;25.17;;;3.10;99.90;;;;;;5080852;28;20200;-66
2020/12/12 07:32:11;;;;;;;55.40;26.97;;;3.10;99.90;;;;;;5080658;28;20250;-67
2020/12/12 07:34:37;;;;;;;40.27;20.47;;;3.10;99.90;;;;;;5080866;28;20675;-67
2020/12/12 07:37:07;;;;;;;44.60;20.83;;;3.10;99.90;;;;;;5079813;28;20177;-67
2020/12/12 07:39:35;;;;;;;45.20;21.00;;;3.10;99.90;;;;;;5080551;28;20196;-66
2020/12/12 07:42:03;;;;;;;51.90;26.17;;;3.10;99.90;;;;;;5081110;28;20200;-67
2020/12/12 07:44:31;;;;;;;49.13;24.00;;;3.10;99.90;;;;;;5104605;22;20244;-61
2020/12/12 07:47:05;;;;;;;37.70;18.00;;;3.10;99.90;;;;;;5045259;28;20762;-61
2020/12/12 07:49:35;;;;;;;39.03;19.13;;;3.10;99.90;;;;;;5079358;28;20204;-61
2020/12/12 07:52:09;;;;;;;42.83;21.47;;;3.00;99.90;;;;;;5080097;28;20195;-62
2020/12/12 07:54:46;;;;;;;39.10;19.57;;;3.00;99.90;;;;;;5079496;28;20180;-61
2020/12/12 07:57:13;;;;;;;64.37;28.27;;;3.00;99.90;;;;;;5084937;28;20273;-62
2020/12/12 07:59:42;;;;;;;39.17;19.73;;;3.00;99.90;;;;;;5092037;28;20261;-62
2020/12/12 08:02:09;;;;;;;47.10;24.40;;;3.00;99.90;;;;;;5092230;28;20165;-62
2020/12/12 08:04:35;;;;;;;48.47;25.20;;;3.00;99.90;;;;;;5092044;28;20189;-62
2020/12/12 08:07:12;;;;;;;37.27;19.77;;;3.00;99.90;;;;;;5079659;28;20177;-63
2020/12/12 08:09:44;;;;;;;51.40;24.93;;;3.00;99.90;;;;;;5071677;28;20228;-63
2020/12/12 08:12:12;;;;;;;50.13;24.73;;;3.10;99.90;;;;;;5071652;28;20208;-62
2020/12/12 08:14:44;;;;;;;52.23;27.10;;;3.10;99.90;;;;;;5071899;28;20185;-62
2020/12/12 08:17:10;;;;;;;50.97;23.80;;;3.10;99.90;;;;;;5071121;28;20522;-61
2020/12/12 08:19:47;;;;;;;45.33;20.80;;;3.10;99.90;;;;;;5071768;28;20177;-61
2020/12/12 08:22:19;;;;;;;39.13;20.17;;;3.10;99.90;;;;;;5071333;28;20176;-62
2020/12/12 08:24:46;;;;;;;37.80;20.50;;;3.00;99.90;;;;;;5071925;28;20222;-63
2020/12/12 08:27:13;;;;;;;48.97;22.87;;;3.00;99.90;;;;;;5070939;28;20243;-63
2020/12/12 08:29:41;;;;;;;31.13;14.97;;;3.00;99.90;;;;;;5070820;28;20193;-64
2020/12/12 08:32:06;;;;;;;31.70;16.50;;;3.00;99.90;;;;;;5070694;28;20173;-62
2020/12/12 08:34:32;;;;;;;43.87;21.87;;;3.00;99.90;;;;;;5070846;28;20257;-59
2020/12/12 08:36:58;;;;;;;46.63;23.50;;;3.00;99.90;;;;;;5070886;28;20193;-61
2020/12/12 08:39:25;;;;;;;38.63;17.23;;;3.00;99.90;;;;;;5080234;28;20167;-62
2020/12/12 08:41:51;;;;;;;45.57;21.93;;;3.00;99.90;;;;;;5087216;28;20184;-62
2020/12/12 08:44:23;;;;;;;23.03;11.57;;;3.00;99.90;;;;;;5070386;28;20696;-61
2020/12/12 08:46:53;;;;;;;33.80;17.30;;;3.00;99.90;;;;;;5071082;28;20680;-59
2020/12/12 08:49:19;;;;;;;55.37;26.10;;;3.00;99.90;;;;;;5070855;28;20196;-62
2020/12/12 08:51:50;;;;;;;47.67;22.57;;;3.00;99.90;;;;;;5071219;28;20600;-61
2020/12/12 08:54:16;;;;;;;45.10;20.33;;;3.00;99.90;;;;;;5070766;28;20189;-62
2020/12/12 08:56:41;;;;;;;44.90;19.13;;;3.00;99.90;;;;;;5071006;28;20218;-61
2020/12/12 08:59:18;;;;;;;55.63;25.17;;;3.00;99.90;;;;;;5070979;28;20219;-61
2020/12/12 09:01:43;;;;;;;49.80;24.13;;;3.00;99.90;;;;;;5069913;28;20686;-63
2020/12/12 09:04:09;;;;;;;53.13;27.10;;;3.10;99.90;;;;;;5070623;28;20192;-62
2020/12/12 09:06:40;;;;;;;52.87;24.13;;;3.00;99.90;;;;;;5072511;28;20708;-62
2020/12/12 09:09:15;;;;;;;40.70;21.00;;;3.00;99.90;;;;;;5070617;28;20580;-63
2020/12/12 09:11:53;;;;;;;35.70;15.37;;;3.10;99.90;;;;;;5073784;28;20198;-62
2020/12/12 09:14:20;;;;;;;43.20;19.70;;;3.00;99.90;;;;;;5070829;28;20253;-62
2020/12/12 09:16:56;;;;;;;33.70;15.10;;;3.00;99.90;;;;;;5066959;28;20197;-62
2020/12/12 09:19:22;;;;;;;43.03;19.90;;;3.00;99.90;;;;;;5091174;28;20687;-62
2020/12/12 09:21:48;;;;;;;52.63;24.33;;;3.10;99.90;;;;;;5072682;28;20181;-63
2020/12/12 09:24:14;;;;;;;36.00;18.13;;;3.00;99.90;;;;;;5071941;28;20283;-71
2020/12/12 09:26:40;;;;;;;48.20;25.70;;;3.10;99.90;;;;;;5070471;28;20168;-70
2020/12/12 09:29:06;;;;;;;26.40;10.80;;;3.10;99.90;;;;;;5068813;28;20215;-71
2020/12/12 09:31:31;;;;;;;41.40;18.83;;;3.10;99.90;;;;;;5071293;28;20200;-71
2020/12/12 09:33:57;;;;;;;48.47;24.20;;;3.10;99.90;;;;;;5070466;28;20313;-72
2020/12/12 09:36:23;;;;;;;43.13;20.93;;;3.10;99.90;;;;;;5068397;28;20181;-71
2020/12/12 09:38:49;;;;;;;55.43;27.40;;;3.10;99.90;;;;;;5090767;28;20196;-72
2020/12/12 09:41:15;;;;;;;52.70;26.37;;;3.20;99.90;;;;;;5071015;28;20559;-68
2020/12/12 09:43:41;;;;;;;49.17;25.33;;;3.20;99.90;;;;;;5068109;28;20212;-68
2020/12/12 09:46:08;;;;;;;51.43;26.77;;;3.20;99.90;;;;;;5070212;28;20161;-69
2020/12/12 09:48:37;;;;;;;39.80;19.60;;;3.20;99.90;;;;;;5070288;28;20177;-68
2020/12/12 09:51:04;;;;;;;44.33;21.07;;;3.30;99.90;;;;;;5069877;28;20201;-68
2020/12/12 09:53:30;;;;;;;55.17;26.47;;;3.30;99.90;;;;;;5070371;28;20592;-68
2020/12/12 09:55:56;;;;;;;29.20;13.87;;;3.20;99.90;;;;;;5069353;28;20177;-68
2020/12/12 09:58:23;;;;;;;51.03;24.23;;;3.20;99.90;;;;;;5052058;28;20185;-68
2020/12/12 10:00:49;;;;;;;50.97;26.50;;;3.30;99.90;;;;;;5070288;28;20181;-68
2020/12/12 10:03:14;;;;;;;45.50;23.03;;;3.30;99.90;;;;;;5069606;28;20277;-68
2020/12/12 10:05:40;;;;;;;41.83;20.60;;;3.30;99.90;;;;;;5068812;28;20683;-68
2020/12/12 10:08:05;;;;;;;32.03;17.13;;;3.30;99.90;;;;;;5068465;28;20710;-67
2020/12/12 10:10:32;;;;;;;49.53;25.40;;;3.30;99.90;;;;;;5069732;28;20780;-68
2020/12/12 10:12:58;;;;;;;22.37;10.47;;;3.30;99.90;;;;;;5070268;28;20451;-68
2020/12/12 10:15:24;;;;;;;27.17;13.80;;;3.30;99.90;;;;;;5069537;28;20263;-68
2020/12/12 10:17:50;;;;;;;45.10;19.90;;;3.30;99.90;;;;;;5071268;28;20200;-68
2020/12/12 10:20:17;;;;;;;47.30;21.53;;;3.30;99.90;;;;;;5068900;28;20176;-68
2020/12/12 10:22:43;;;;;;;36.20;18.93;;;3.30;99.90;;;;;;5080557;28;20296;-68
2020/12/12 10:25:08;;;;;;;39.73;18.40;;;3.30;99.90;;;;;;5069849;28;20270;-68
2020/12/12 10:27:35;;;;;;;41.23;18.60;;;3.40;99.90;;;;;;5069601;28;20188;-68
2020/12/12 10:30:01;;;;;;;50.20;25.03;;;3.40;99.90;;;;;;5066013;28;20205;-67
2020/12/12 10:32:27;;;;;;;45.77;21.97;;;3.40;99.90;;;;;;5073964;28;20538;-67
2020/12/12 10:34:52;;;;;;;42.57;17.87;;;3.50;99.90;;;;;;5077508;28;20231;-67
2020/12/12 10:37:18;;;;;;;38.23;20.20;;;3.40;99.90;;;;;;5077258;28;20256;-71
2020/12/12 10:42:21;;;;;;;42.97;20.97;;;3.40;99.90;;;;;;5078193;28;20261;-71
2020/12/12 10:44:46;;;;;;;48.93;24.07;;;3.50;99.90;;;;;;5077569;28;20618;-74
2020/12/12 10:47:12;;;;;;;27.83;13.57;;;3.60;99.90;;;;;;5059851;28;20285;-72
2020/12/12 10:49:38;;;;;;;38.13;19.53;;;3.60;99.90;;;;;;5075041;28;20212;-72
2020/12/12 10:52:05;;;;;;;44.67;21.80;;;3.60;99.90;;;;;;5068573;28;20196;-71
2020/12/12 10:54:31;;;;;;;53.57;24.97;;;3.60;99.90;;;;;;5066749;28;20209;-71
2020/12/12 10:56:57;;;;;;;45.50;24.30;;;3.60;99.90;;;;;;5054523;28;20553;-69
2020/12/12 10:59:22;;;;;;;49.77;24.87;;;3.60;99.90;;;;;;5072711;28;20276;-70
2020/12/12 11:01:55;;;;;;;37.57;17.27;;;3.70;99.90;;;;;;5072890;28;20209;-70
2020/12/12 11:04:22;;;;;;;22.60;11.50;;;3.70;99.90;;;;;;5070786;28;20205;-71
2020/12/12 11:06:48;;;;;;;38.80;18.93;;;3.70;99.90;;;;;;5073152;28;20181;-70
2020/12/12 11:09:14;;;;;;;48.23;23.63;;;3.80;99.90;;;;;;5073035;28;20173;-72
2020/12/12 11:11:40;;;;;;;43.97;24.13;;;3.80;99.90;;;;;;5071849;28;20184;-72
2020/12/12 11:14:07;;;;;;;45.13;25.97;;;3.80;99.90;;;;;;5072110;28;20311;-71
2020/12/12 11:16:33;;;;;;;33.03;17.60;;;3.80;99.90;;;;;;5070621;28;20260;-71
2020/12/12 11:18:59;;;;;;;42.43;22.67;;;3.70;99.90;;;;;;5064346;28;20173;-69
2020/12/12 11:21:24;;;;;;;46.10;23.90;;;3.80;99.90;;;;;;5064299;28;20263;-69
2020/12/12 11:23:50;;;;;;;44.13;24.40;;;3.90;99.90;;;;;;5059903;28;20205;-70
2020/12/12 11:26:17;;;;;;;49.37;24.23;;;3.90;99.90;;;;;;5064818;28;20177;-70
2020/12/12 11:28:44;;;;;;;26.10;12.80;;;3.90;99.90;;;;;;5073048;28;20600;-71
2020/12/12 11:31:17;;;;;;;40.33;20.17;;;3.90;99.90;;;;;;5072178;28;20232;-70
2020/12/12 11:33:44;;;;;;;35.67;18.50;;;3.90;99.90;;;;;;5065967;28;20534;-71
2020/12/12 11:36:32;;;;;;;43.80;23.70;;;3.80;99.90;;;;;;5072683;28;20317;-69
2020/12/12 11:39:08;;;;;;;44.87;23.53;;;4.00;99.90;;;;;;5072449;28;20256;-70
2020/12/12 11:42:04;;;;;;;47.20;22.80;;;4.00;99.90;;;;;;5070885;28;20556;-72
2020/12/12 11:44:43;;;;;;;42.97;21.27;;;4.10;99.90;;;;;;5062368;28;20305;-70
2020/12/12 11:47:09;;;;;;;43.83;23.00;;;4.00;99.90;;;;;;5069489;28;20189;-72
2020/12/12 11:49:36;;;;;;;41.07;22.30;;;3.90;99.90;;;;;;5071758;28;20203;-71
2020/12/12 11:52:02;;;;;;;43.23;21.30;;;3.80;99.90;;;;;;5094965;28;20241;-71
2020/12/12 11:54:28;;;;;;;46.77;23.63;;;3.70;99.90;;;;;;5076584;28;20299;-70
2020/12/12 11:56:53;;;;;;;41.00;20.70;;;3.70;99.90;;;;;;5077659;28;20187;-68
2020/12/12 11:59:19;;;;;;;33.50;16.10;;;3.70;99.90;;;;;;5072606;28;20204;-73
2020/12/12 12:01:44;;;;;;;41.77;22.00;;;3.70;99.90;;;;;;5093379;28;20256;-69
2020/12/12 12:04:10;;;;;;;44.97;22.40;;;3.80;99.90;;;;;;5090760;28;20189;-67
2020/12/12 12:06:37;;;;;;;38.87;20.80;;;3.90;99.90;;;;;;5073271;28;20177;-63
2020/12/12 12:11:33;;;;;;;41.57;23.37;;;3.90;99.90;;;;;;5069067;28;20270;-62
2020/12/12 12:14:07;;;;;;;42.67;23.57;;;3.80;99.90;;;;;;5071089;28;20205;-62
2020/12/12 12:16:38;;;;;;;41.40;21.17;;;3.80;99.90;;;;;;5070159;28;20187;-62
2020/12/12 12:19:08;;;;;;;40.87;22.33;;;3.80;99.90;;;;;;5070974;28;20180;-62
2020/12/12 12:21:35;;;;;;;51.03;25.60;;;3.80;99.90;;;;;;5071818;28;20219;-62
2020/12/12 12:24:15;;;;;;;41.00;23.53;;;3.80;99.90;;;;;;5072124;28;20204;-62
2020/12/12 12:26:41;;;;;;;44.67;23.07;;;3.80;99.90;;;;;;5072106;28;20185;-61
2020/12/12 12:29:08;;;;;;;41.00;21.57;;;3.80;99.90;;;;;;5071674;28;20175;-62
2020/12/12 12:31:35;;;;;;;46.37;24.53;;;3.80;99.90;;;;;;5071332;28;20205;-60
2020/12/12 12:34:00;;;;;;;40.07;22.17;;;3.80;99.90;;;;;;5071485;28;20185;-61
2020/12/12 12:36:28;;;;;;;34.40;16.13;;;3.80;99.90;;;;;;5071023;28;20268;-60
2020/12/12 12:38:55;;;;;;;40.00;21.53;;;3.80;99.90;;;;;;5053452;28;20204;-62
2020/12/12 12:41:20;;;;;;;43.70;22.87;;;3.80;99.90;;;;;;5071114;28;20177;-61